Moline, Illinois
Current Conditions -  °F | °C
As of 6:52 PM on Tuesday 27 Jan 2015 (Local Time) from KMLI Reporting Station
Overcast Overcast  
Wind Chill: 20°   Ceiling: 1400
Heat Index: 27°   Visibility: 7mi
Dew Point: 22°   Wind: 6mph
Humidity: 81%   Direction: 150°SSE
Pressure: 30.24"   Gusts: NA
Location:  41.49°N, 90.49°W
Report Text: KMLI 280052Z 15005KT 7SM OVC014 M03/M06 A3024 RMK AO2 SLP247 T10281056
Loading
Personal Weather Stations






























Interactive Weather Map New forecast layout! Learn more

10-Day Weather Forecast

Advertisements
Track Severe Weather on mobile